»·PEaware :: AAL68 KSAN-KFAT

AAL68 :: KSAN-KFAT

FLIGHT INFORMATION

Flight Status: Arrived
Operator:
American Airlines
More flights by this operator :: More flights under this callsign
Pilot: Anonymous 1753 (1753)
Aircraft: AIRBUS A320
(A320)
More flights by this aircraft type
Origin: KSAN San Diego Intl-Lindbergh
United States
Destination: KFAT Fresno Yosemite Intl
United States
More flights between these airports :: More routes between these airports
Route: PADRZ2 EHF TTE ALTTA9
File this flight plan on PilotEdge
Remarks: RMK / PREFER ALTTA.RNAV27R APCH
Altitude:
(Current/Filed)
34,000ft
Speed:
(Current/Filed)
458kts
Departed: 14-Jan-20 08:20 PM
Arrived: 14-Jan-20 09:13 PM
Distance/Time
Traveled:
272nm/0:53
Distance/Time
To Go:
Arrived

Flight Plot

Page will automatically refresh every two minutes.

Flight plan parsing failed; only flown route is shown


Map Options




Map Legend


Flown Route
Filed Route
Departure Airport
Arrival Airport
Navaid (VOR, NDB)
Fix

Horizontal Profiles

Position Reports

Time Latitude Longitude Heading Altitude Ground
Speed
14-Jan-20 19:50 32.733243 -117.196052 199 20ft 0kts
14-Jan-20 19:51 32.733243 -117.196052 199 20ft 0kts
14-Jan-20 19:52 32.733243 -117.196052 199 20ft 0kts
14-Jan-20 19:53 32.733244 -117.196051 199 20ft 0kts
14-Jan-20 19:54 32.733244 -117.196051 199 20ft 0kts
14-Jan-20 19:55 32.733244 -117.196051 199 20ft 0kts
14-Jan-20 19:56 32.733244 -117.196051 199 20ft 0kts
14-Jan-20 19:57 32.733244 -117.196051 199 20ft 0kts
14-Jan-20 19:58 32.733244 -117.196051 199 20ft 0kts
14-Jan-20 19:59 32.733244 -117.196051 199 20ft 0kts
14-Jan-20 20:00 32.733244 -117.196051 199 20ft 0kts
14-Jan-20 20:01 32.733244 -117.196051 199 20ft 0kts
14-Jan-20 20:02 32.733244 -117.196051 199 20ft 0kts
14-Jan-20 20:03 32.733244 -117.196051 199 20ft 0kts
14-Jan-20 20:04 32.733244 -117.196051 199 20ft 0kts
14-Jan-20 20:05 32.733244 -117.196051 199 20ft 0kts
14-Jan-20 20:06 32.733244 -117.196051 199 20ft 0kts
14-Jan-20 20:07 32.733740 -117.196314 109 20ft 2kts
14-Jan-20 20:08 32.733587 -117.196970 60 19ft 1kts
14-Jan-20 20:09 32.733576 -117.196993 60 19ft 0kts
14-Jan-20 20:10 32.733576 -117.196993 60 19ft 0kts
14-Jan-20 20:11 32.733576 -117.196993 60 19ft 0kts
14-Jan-20 20:12 32.733576 -117.196993 60 19ft 0kts
14-Jan-20 20:13 32.733576 -117.196993 60 19ft 0kts
14-Jan-20 20:14 32.733605 -117.196932 62 19ft 0kts
14-Jan-20 20:15 32.733066 -117.191855 106 22ft 26kts
14-Jan-20 20:16 32.730842 -117.183443 108 19ft 18kts
14-Jan-20 20:17 32.729591 -117.177280 100 24ft 13kts
14-Jan-20 20:18 32.729574 -117.177068 89 24ft 0kts
14-Jan-20 20:19 32.732696 -117.186142 289 21ft 138kts
14-Jan-20 20:20 32.758115 -117.237514 303 3202ft 225kts
14-Jan-20 20:21 32.796168 -117.311035 303 6971ft 267kts
14-Jan-20 20:22 32.843319 -117.385780 307 10784ft 287kts
14-Jan-20 20:23 32.898312 -117.471311 307 12337ft 363kts
14-Jan-20 20:24 32.961680 -117.570056 306 14879ft 379kts
14-Jan-20 20:25 33.026137 -117.670788 304 17337ft 386kts
14-Jan-20 20:26 33.100590 -117.766912 315 19452ft 399kts
14-Jan-20 20:28 33.186720 -117.854587 315 21244ft 410kts
14-Jan-20 20:29 33.276546 -117.942602 316 22805ft 422kts
14-Jan-20 20:30 33.368381 -118.032313 315 24206ft 432kts
14-Jan-20 20:31 33.462056 -118.125650 316 25460ft 443kts
14-Jan-20 20:32 33.558190 -118.218749 317 26613ft 452kts
14-Jan-20 20:33 33.672286 -118.289186 329 27671ft 468kts
14-Jan-20 20:34 33.791128 -118.353268 331 28903ft 470kts
14-Jan-20 20:35 33.913642 -118.415078 331 30178ft 469kts
14-Jan-20 20:36 34.040903 -118.465757 347 31404ft 481kts
14-Jan-20 20:37 34.176450 -118.486493 347 32530ft 482kts
14-Jan-20 20:38 34.309992 -118.507111 346 33541ft 482kts
14-Jan-20 20:39 34.442545 -118.527589 347 34123ft 480kts
14-Jan-20 20:40 34.574710 -118.548074 346 34158ft 481kts
14-Jan-20 20:41 34.707194 -118.568666 347 34140ft 481kts
14-Jan-20 20:42 34.840309 -118.589427 347 34170ft 480kts
14-Jan-20 20:43 34.972640 -118.611110 341 34184ft 470kts
14-Jan-20 20:44 35.078915 -118.683434 314 34181ft 434kts
14-Jan-20 20:45 35.171715 -118.777785 314 33812ft 435kts
14-Jan-20 20:46 35.265161 -118.872862 315 31352ft 440kts
14-Jan-20 20:47 35.358897 -118.968522 316 27902ft 444kts
14-Jan-20 20:48 35.458667 -119.059459 331 24141ft 454kts
14-Jan-20 20:49 35.578703 -119.080383 3 20165ft 433kts
14-Jan-20 20:50 35.692358 -119.060198 4 14828ft 399kts
14-Jan-20 20:50 35.780521 -119.044536 5 11432ft 368kts
14-Jan-20 20:52 35.879613 -119.026877 5 11036ft 281kts
14-Jan-20 20:53 35.951669 -119.039117 336 11034ft 261kts
14-Jan-20 20:53 36.010869 -119.067259 337 11034ft 275kts
14-Jan-20 20:54 36.085409 -119.071431 10 10866ft 280kts
14-Jan-20 20:55 36.158177 -119.063553 356 10339ft 253kts
14-Jan-20 20:56 36.229354 -119.068349 352 9610ft 253kts
14-Jan-20 20:57 36.298698 -119.076525 352 8386ft 247kts
14-Jan-20 20:58 36.367041 -119.085599 352 7173ft 243kts
14-Jan-20 20:59 36.428394 -119.112353 305 6032ft 237kts
14-Jan-20 21:00 36.468214 -119.181136 305 5847ft 249kts
14-Jan-20 21:01 36.504518 -119.243934 305 5845ft 210kts
14-Jan-20 21:02 36.538736 -119.303054 306 5847ft 210kts
14-Jan-20 21:03 36.572698 -119.361828 306 4612ft 207kts
14-Jan-20 21:04 36.606222 -119.419951 305 3169ft 202kts
14-Jan-20 21:05 36.636454 -119.472496 305 2627ft 175kts
14-Jan-20 21:06 36.658169 -119.510349 305 2606ft 123kts
14-Jan-20 21:07 36.678052 -119.545042 301 2528ft 123kts
14-Jan-20 21:08 36.698037 -119.579197 306 1850ft 116kts
14-Jan-20 21:09 36.717504 -119.613490 302 1896ft 132kts
14-Jan-20 21:10 36.738041 -119.649512 303 1310ft 124kts
14-Jan-20 21:11 36.759461 -119.686643 302 679ft 127kts
14-Jan-20 21:12 36.773035 -119.711520 283 334ft 23kts

Navigation Log

Ident Type
Flight plan parsing failed, navigation log unavailable